Time,TemperatureF,DewpointF,PressureIn,WindDirection,WindDirectionDegrees,WindSpeedMPH,WindSpeedGustMPH,Humidity,HourlyPrecipIn,Conditions,Clouds,dailyrainin,SolarRadiationWatts/m^2,SoftwareType,DateUTC
2013-01-14 00:00:00,30.3,8.9,30.10,NNE,22,0.0,0.0,40,0.00,,,0.00,0,LWC V2.00 B727,2013-01-14 07:00:00,
2013-01-14 00:05:00,29.7,8.9,30.10,NNE,22,0.0,0.0,41,0.00,,,0.00,0,LWC V2.00 B727,2013-01-14 07:05:00,
2013-01-14 00:10:00,29.8,9.0,30.10,NNE,22,0.0,0.0,41,0.00,,,0.00,0,LWC V2.00 B727,2013-01-14 07:10:00,
2013-01-14 00:15:00,29.9,9.1,30.10,NNE,22,0.0,0.0,41,0.00,,,0.00,0,LWC V2.00 B727,2013-01-14 07:15:00,
2013-01-14 00:20:00,30.2,9.4,30.10,NNE,22,2.0,2.0,41,0.00,,,0.00,0,LWC V2.00 B727,2013-01-14 07:20:00,
2013-01-14 00:26:00,29.9,10.2,30.10,NNE,22,3.0,3.0,43,0.00,,,0.00,0,LWC V2.00 B727,2013-01-14 07:26:00,
2013-01-14 00:31:00,29.9,10.2,30.10,NNE,22,2.0,3.0,43,0.00,,,0.00,0,LWC V2.00 B727,2013-01-14 07:31:00,
2013-01-14 00:36:00,30.0,10.2,30.11,NNE,22,0.0,0.0,43,0.00,,,0.00,0,LWC V2.00 B727,2013-01-14 07:36:00,
2013-01-14 00:41:00,29.5,10.3,30.11,NNE,22,0.0,1.0,44,0.00,,,0.00,0,LWC V2.00 B727,2013-01-14 07:41:00,
2013-01-14 00:46:00,29.0,10.4,30.11,NNE,22,1.0,2.0,45,0.00,,,0.00,0,LWC V2.00 B727,2013-01-14 07:46:00,
2013-01-14 00:51:00,29.9,9.6,30.11,NNE,22,0.0,0.0,42,0.00,,,0.00,0,LWC V2.00 B727,2013-01-14 07:51:00,
2013-01-14 00:56:00,30.5,10.2,30.11,NNE,22,1.0,3.0,42,0.00,,,0.00,0,LWC V2.00 B727,2013-01-14 07:56:00,
2013-01-14 01:01:00,30.8,9.9,30.11,NNE,22,2.0,3.0,41,0.00,,,0.00,0,LWC V2.00 B727,2013-01-14 08:01:00,
2013-01-14 01:06:00,30.8,10.4,30.10,ENE,64,2.0,4.0,42,0.00,,,0.00,0,LWC V2.00 B727,2013-01-14 08:06:00,
2013-01-14 01:11:00,30.7,10.4,30.10,ENE,64,2.0,4.0,42,0.00,,,0.00,0,LWC V2.00 B727,2013-01-14 08:11:00,
2013-01-14 01:16:00,30.5,11.2,30.10,ENE,64,2.0,4.0,44,0.00,,,0.00,0,LWC V2.00 B727,2013-01-14 08:16:00,
2013-01-14 01:21:00,29.9,11.7,30.11,ENE,64,1.0,3.0,46,0.00,,,0.00,0,LWC V2.00 B727,2013-01-14 08:21:00,
2013-01-14 01:26:00,29.5,11.8,30.11,ENE,64,0.0,1.0,47,0.00,,,0.00,0,LWC V2.00 B727,2013-01-14 08:26:00,
2013-01-14 01:31:00,29.4,11.2,30.11,ENE,64,0.0,0.0,46,0.00,,,0.00,0,LWC V2.00 B727,2013-01-14 08:31:00,
2013-01-14 01:36:00,30.2,9.9,30.11,ENE,64,0.0,0.0,42,0.00,,,0.00,0,LWC V2.00 B727,2013-01-14 08:36:00,
2013-01-14 01:41:00,30.9,11.1,30.11,ENE,64,0.0,2.0,43,0.00,,,0.00,0,LWC V2.00 B727,2013-01-14 08:41:00,
2013-01-14 01:46:00,29.4,10.7,30.12,ENE,64,0.0,0.0,45,0.00,,,0.00,0,LWC V2.00 B727,2013-01-14 08:46:00,
2013-01-14 01:51:00,28.6,11.0,30.12,ENE,64,0.0,0.0,47,0.00,,,0.00,0,LWC V2.00 B727,2013-01-14 08:51:00,
2013-01-14 01:56:00,28.0,11.8,30.12,ENE,64,0.0,2.0,50,0.00,,,0.00,0,LWC V2.00 B727,2013-01-14 08:56:00,
2013-01-14 02:01:00,27.4,12.1,30.12,ENE,64,0.0,1.0,52,0.00,,,0.00,0,LWC V2.00 B727,2013-01-14 09:01:00,
2013-01-14 02:06:00,27.3,12.0,30.12,ENE,64,0.0,1.0,52,0.00,,,0.00,0,LWC V2.00 B727,2013-01-14 09:06:00,
2013-01-14 02:11:00,27.2,12.4,30.12,ENE,64,0.0,2.0,53,0.00,,,0.00,0,LWC V2.00 B727,2013-01-14 09:11:00,
2013-01-14 02:16:00,27.3,12.0,30.12,ENE,64,1.0,2.0,52,0.00,,,0.00,0,LWC V2.00 B727,2013-01-14 09:16:00,
2013-01-14 02:21:00,27.6,11.9,30.12,ENE,65,1.0,4.0,51,0.00,,,0.00,0,LWC V2.00 B727,2013-01-14 09:21:00,
2013-01-14 02:26:00,27.4,11.7,30.13,ENE,65,1.0,2.0,51,0.00,,,0.00,0,LWC V2.00 B727,2013-01-14 09:26:00,
2013-01-14 02:31:00,27.6,11.0,30.12,ENE,65,1.0,1.0,49,0.00,,,0.00,0,LWC V2.00 B727,2013-01-14 09:31:00,
2013-01-14 02:36:00,27.8,11.2,30.13,ENE,65,0.0,1.0,49,0.00,,,0.00,0,LWC V2.00 B727,2013-01-14 09:36:00,
2013-01-14 02:41:00,27.7,11.1,30.12,ENE,65,0.0,1.0,49,0.00,,,0.00,0,LWC V2.00 B727,2013-01-14 09:41:00,
2013-01-14 02:46:00,28.3,10.7,30.13,ENE,65,0.0,0.0,47,0.00,,,0.00,0,LWC V2.00 B727,2013-01-14 09:46:00,
2013-01-14 02:51:00,29.3,9.6,30.13,ENE,65,0.0,0.0,43,0.00,,,0.00,0,LWC V2.00 B727,2013-01-14 09:51:00,
2013-01-14 02:56:00,30.2,9.4,30.13,ENE,65,0.0,0.0,41,0.00,,,0.00,0,LWC V2.00 B727,2013-01-14 09:56:00,
2013-01-14 03:01:00,30.2,9.4,30.13,ENE,65,0.0,0.0,41,0.00,,,0.00,0,LWC V2.00 B727,2013-01-14 10:01:00,
2013-01-14 03:06:00,30.1,9.3,30.13,ENE,65,0.0,1.0,41,0.00,,,0.00,0,LWC V2.00 B727,2013-01-14 10:06:00,
2013-01-14 03:11:00,29.5,9.3,30.13,ENE,65,0.0,0.0,42,0.00,,,0.00,0,LWC V2.00 B727,2013-01-14 10:11:00,
2013-01-14 03:16:00,29.1,9.4,30.13,ENE,65,0.0,0.0,43,0.00,,,0.00,0,LWC V2.00 B727,2013-01-14 10:16:00,
2013-01-14 03:21:00,28.7,9.1,30.13,ENE,65,0.0,0.0,43,0.00,,,0.00,0,LWC V2.00 B727,2013-01-14 10:21:00,
2013-01-14 03:26:00,28.8,9.2,30.13,ENE,65,0.0,0.0,43,0.00,,,0.00,0,LWC V2.00 B727,2013-01-14 10:26:00,
2013-01-14 03:31:00,28.9,9.2,30.13,ENE,65,0.0,0.0,43,0.00,,,0.00,0,LWC V2.00 B727,2013-01-14 10:31:00,
2013-01-14 03:36:00,28.8,9.2,30.13,ENE,65,0.0,0.0,43,0.00,,,0.00,0,LWC V2.00 B727,2013-01-14 10:36:00,
2013-01-14 03:41:00,28.6,9.0,30.13,ENE,65,0.0,0.0,43,0.00,,,0.00,0,LWC V2.00 B727,2013-01-14 10:41:00,
2013-01-14 03:46:00,28.8,9.2,30.13,ENE,65,0.0,2.0,43,0.00,,,0.00,0,LWC V2.00 B727,2013-01-14 10:46:00,
2013-01-14 03:51:00,28.6,9.5,30.13,ENE,65,2.0,2.0,44,0.00,,,0.00,0,LWC V2.00 B727,2013-01-14 10:51:00,
2013-01-14 03:56:00,28.1,9.5,30.13,ENE,65,1.0,2.0,45,0.00,,,0.00,0,LWC V2.00 B727,2013-01-14 10:56:00,
2013-01-14 04:01:00,27.7,9.6,30.13,ENE,65,2.0,2.0,46,0.00,,,0.00,0,LWC V2.00 B727,2013-01-14 11:01:00,
2013-01-14 04:06:00,27.8,9.3,30.13,ENE,65,1.0,2.0,45,0.00,,,0.00,0,LWC V2.00 B727,2013-01-14 11:06:00,
2013-01-14 04:11:00,28.0,8.9,30.13,ENE,65,0.0,1.0,44,0.00,,,0.00,0,LWC V2.00 B727,2013-01-14 11:11:00,
2013-01-14 04:16:00,28.8,8.6,30.13,ENE,65,1.0,1.0,42,0.00,,,0.00,0,LWC V2.00 B727,2013-01-14 11:16:00,
2013-01-14 04:21:00,29.2,9.0,30.13,ENE,65,0.0,0.0,42,0.00,,,0.00,0,LWC V2.00 B727,2013-01-14 11:21:00,
2013-01-14 04:26:00,28.6,9.0,30.13,ENE,65,0.0,0.0,43,0.00,,,0.00,0,LWC V2.00 B727,2013-01-14 11:26:00,
2013-01-14 04:31:00,28.0,8.9,30.13,ENE,65,0.0,0.0,44,0.00,,,0.00,0,LWC V2.00 B727,2013-01-14 11:31:00,
2013-01-14 04:36:00,27.5,8.5,30.13,ENE,65,0.0,0.0,44,0.00,,,0.00,0,LWC V2.00 B727,2013-01-14 11:36:00,
2013-01-14 04:41:00,27.6,8.6,30.13,ENE,65,0.0,0.0,44,0.00,,,0.00,0,LWC V2.00 B727,2013-01-14 11:41:00,
2013-01-14 04:46:00,27.5,8.0,30.13,ENE,65,0.0,0.0,43,0.00,,,0.00,0,LWC V2.00 B727,2013-01-14 11:46:00,
2013-01-14 04:51:00,27.3,8.3,30.13,ENE,65,0.0,0.0,44,0.00,,,0.00,0,LWC V2.00 B727,2013-01-14 11:51:00,
2013-01-14 04:56:00,27.4,8.4,30.13,ENE,65,0.0,0.0,44,0.00,,,0.00,0,LWC V2.00 B727,2013-01-14 11:56:00,
2013-01-14 05:01:00,27.3,8.3,30.13,ENE,65,0.0,2.0,44,0.00,,,0.00,0,LWC V2.00 B727,2013-01-14 12:01:00,
2013-01-14 05:06:00,27.1,8.1,30.13,ENE,65,0.0,2.0,44,0.00,,,0.00,0,LWC V2.00 B727,2013-01-14 12:06:00,
2013-01-14 05:11:00,27.0,8.5,30.13,ENE,65,1.0,2.0,45,0.00,,,0.00,0,LWC V2.00 B727,2013-01-14 12:11:00,
2013-01-14 05:16:00,27.3,8.3,30.13,ENE,65,1.0,2.0,44,0.00,,,0.00,0,LWC V2.00 B727,2013-01-14 12:16:00,
2013-01-14 05:21:00,27.6,8.6,30.13,ENE,65,2.0,2.0,44,0.00,,,0.00,0,LWC V2.00 B727,2013-01-14 12:21:00,
2013-01-14 05:26:00,27.6,8.1,30.13,ENE,65,3.0,4.0,43,0.00,,,0.00,0,LWC V2.00 B727,2013-01-14 12:26:00,
2013-01-14 05:31:00,27.3,8.8,30.13,ENE,65,3.0,4.0,45,0.00,,,0.00,0,LWC V2.00 B727,2013-01-14 12:31:00,
2013-01-14 05:36:00,26.9,8.4,30.13,ENE,65,3.0,4.0,45,0.00,,,0.00,0,LWC V2.00 B727,2013-01-14 12:36:00,
2013-01-14 05:41:00,26.6,8.2,30.13,ENE,65,3.0,3.0,45,0.00,,,0.00,0,LWC V2.00 B727,2013-01-14 12:41:00,
2013-01-14 05:46:00,26.2,7.8,30.13,ENE,65,2.0,3.0,45,0.00,,,0.00,0,LWC V2.00 B727,2013-01-14 12:46:00,
2013-01-14 05:51:00,26.1,7.7,30.13,ENE,65,2.0,2.0,45,0.00,,,0.00,0,LWC V2.00 B727,2013-01-14 12:51:00,
2013-01-14 05:56:00,25.9,7.5,30.13,ENE,65,2.0,3.0,45,0.00,,,0.00,0,LWC V2.00 B727,2013-01-14 12:56:00,
2013-01-14 06:01:00,25.6,7.7,30.13,ENE,65,2.0,3.0,46,0.00,,,0.00,0,LWC V2.00 B727,2013-01-14 13:01:00,
2013-01-14 06:06:00,25.9,7.0,30.13,ENE,65,1.0,2.0,44,0.00,,,0.00,0,LWC V2.00 B727,2013-01-14 13:06:00,
2013-01-14 06:11:00,26.8,6.3,30.13,ENE,65,0.0,0.0,41,0.00,,,0.00,0,LWC V2.00 B727,2013-01-14 13:11:00,
2013-01-14 06:16:00,27.0,7.0,30.13,ENE,65,0.0,0.0,42,0.00,,,0.00,0,LWC V2.00 B727,2013-01-14 13:16:00,
2013-01-14 06:21:00,26.2,6.8,30.13,ENE,65,0.0,0.0,43,0.00,,,0.00,0,LWC V2.00 B727,2013-01-14 13:21:00,
2013-01-14 06:26:00,25.7,6.8,30.14,ENE,65,0.0,0.0,44,0.00,,,0.00,0,LWC V2.00 B727,2013-01-14 13:26:00,
2013-01-14 06:31:00,25.4,7.1,30.13,ENE,65,0.0,1.0,45,0.00,,,0.00,0,LWC V2.00 B727,2013-01-14 13:31:00,
2013-01-14 06:36:00,25.9,6.5,30.13,ENE,65,0.0,1.0,43,0.00,,,0.00,0,LWC V2.00 B727,2013-01-14 13:36:00,
2013-01-14 06:41:00,26.0,6.6,30.14,ENE,65,0.0,1.0,43,0.00,,,0.00,0,LWC V2.00 B727,2013-01-14 13:41:00,
2013-01-14 06:46:00,26.6,6.1,30.14,ENE,65,0.0,1.0,41,0.00,,,0.00,0,LWC V2.00 B727,2013-01-14 13:46:00,
2013-01-14 06:51:00,27.1,6.0,30.14,ENE,65,0.0,1.0,40,0.00,,,0.00,0,LWC V2.00 B727,2013-01-14 13:51:00,
2013-01-14 06:56:00,27.3,5.6,30.14,ENE,65,0.0,0.0,39,0.00,,,0.00,0,LWC V2.00 B727,2013-01-14 13:56:00,
2013-01-14 07:01:00,27.1,5.5,30.14,ENE,65,0.0,0.0,39,0.00,,,0.00,0,LWC V2.00 B727,2013-01-14 14:01:00,
2013-01-14 07:06:00,27.7,4.9,30.15,ENE,65,0.0,1.0,37,0.00,,,0.00,0,LWC V2.00 B727,2013-01-14 14:06:00,
2013-01-14 07:11:00,27.7,5.4,30.15,ENE,65,1.0,1.0,38,0.00,,,0.00,0,LWC V2.00 B727,2013-01-14 14:11:00,
2013-01-14 07:16:00,27.6,5.4,30.15,ENE,65,2.0,2.0,38,0.00,,,0.00,0,LWC V2.00 B727,2013-01-14 14:16:00,
2013-01-14 07:21:00,27.6,5.9,30.15,ENE,65,2.0,3.0,39,0.00,,,0.00,0,LWC V2.00 B727,2013-01-14 14:21:00,
2013-01-14 07:26:00,27.1,6.0,30.15,ENE,65,2.0,3.0,40,0.00,,,0.00,7,LWC V2.00 B727,2013-01-14 14:26:00,
2013-01-14 07:31:00,26.9,5.8,30.15,ENE,65,1.0,3.0,40,0.00,,,0.00,11,LWC V2.00 B727,2013-01-14 14:31:00,
2013-01-14 07:36:00,26.9,5.8,30.15,ENE,65,3.0,3.0,40,0.00,,,0.00,12,LWC V2.00 B727,2013-01-14 14:36:00,
2013-01-14 07:41:00,26.9,5.8,30.15,ENE,65,1.0,2.0,40,0.00,,,0.00,16,LWC V2.00 B727,2013-01-14 14:41:00,
2013-01-14 07:46:00,26.7,6.2,30.16,ENE,65,0.0,2.0,41,0.00,,,0.00,18,LWC V2.00 B727,2013-01-14 14:46:00,
2013-01-14 07:51:00,26.6,6.1,30.15,ENE,65,1.0,2.0,41,0.00,,,0.00,19,LWC V2.00 B727,2013-01-14 14:51:00,
2013-01-14 07:56:00,26.8,6.3,30.15,ENE,65,1.0,2.0,41,0.00,,,0.00,21,LWC V2.00 B727,2013-01-14 14:56:00,
2013-01-14 08:01:00,27.1,6.0,30.15,ENE,65,0.0,2.0,40,0.00,,,0.00,23,LWC V2.00 B727,2013-01-14 15:01:00,
2013-01-14 08:06:00,27.6,5.4,30.16,ENE,65,0.0,1.0,38,0.00,,,0.00,25,LWC V2.00 B727,2013-01-14 15:06:00,
2013-01-14 08:11:00,27.9,5.6,30.16,ENE,65,0.0,2.0,38,0.00,,,0.00,25,LWC V2.00 B727,2013-01-14 15:11:00,
2013-01-14 08:16:00,28.1,5.8,30.16,ENE,65,0.0,2.0,38,0.00,,,0.00,25,LWC V2.00 B727,2013-01-14 15:16:00,
2013-01-14 08:21:00,28.3,5.4,30.16,ENE,65,1.0,2.0,37,0.00,,,0.00,130,LWC V2.00 B727,2013-01-14 15:21:00,
2013-01-14 08:26:00,29.0,6.0,30.17,ENE,65,0.0,0.0,37,0.00,,,0.00,160,LWC V2.00 B727,2013-01-14 15:26:00,
2013-01-14 08:31:00,30.0,6.9,30.16,ENE,65,2.0,2.0,37,0.00,,,0.00,172,LWC V2.00 B727,2013-01-14 15:31:00,
2013-01-14 08:36:00,30.6,7.5,30.17,ENE,65,0.0,1.0,37,0.00,,,0.00,188,LWC V2.00 B727,2013-01-14 15:36:00,
2013-01-14 08:41:00,31.2,6.8,30.17,ENE,65,2.0,2.0,35,0.00,,,0.00,206,LWC V2.00 B727,2013-01-14 15:41:00,
2013-01-14 08:46:00,31.7,7.2,30.17,ENE,65,0.0,2.0,35,0.00,,,0.00,221,LWC V2.00 B727,2013-01-14 15:46:00,
2013-01-14 08:51:00,32.1,6.9,30.17,East,92,1.0,2.0,34,0.00,,,0.00,239,LWC V2.00 B727,2013-01-14 15:51:00,
2013-01-14 08:56:00,32.5,7.3,30.17,East,92,0.0,2.0,34,0.00,,,0.00,257,LWC V2.00 B727,2013-01-14 15:56:00,
2013-01-14 09:01:00,32.8,6.9,30.17,East,92,1.0,2.0,33,0.00,,,0.00,269,LWC V2.00 B727,2013-01-14 16:01:00,
2013-01-14 09:06:00,32.9,8.3,30.18,East,92,0.0,0.0,35,0.00,,,0.00,288,LWC V2.00 B727,2013-01-14 16:06:00,
2013-01-14 09:11:00,32.3,8.4,30.18,East,92,0.0,0.0,36,0.00,,,0.00,313,LWC V2.00 B727,2013-01-14 16:11:00,
2013-01-14 09:16:00,32.3,8.4,30.17,East,92,1.0,1.0,36,0.00,,,0.00,179,LWC V2.00 B727,2013-01-14 16:16:00,
2013-01-14 09:21:00,32.4,7.8,30.17,East,92,0.0,1.0,35,0.00,,,0.00,367,LWC V2.00 B727,2013-01-14 16:21:00,
2013-01-14 09:26:00,33.2,8.5,30.18,East,92,0.0,2.0,35,0.00,,,0.00,128,LWC V2.00 B727,2013-01-14 16:26:00,
2013-01-14 09:31:00,32.6,8.6,30.18,East,92,0.0,0.0,36,0.00,,,0.00,183,LWC V2.00 B727,2013-01-14 16:31:00,
2013-01-14 09:36:00,32.6,9.8,30.18,East,92,0.0,0.0,38,0.00,,,0.00,199,LWC V2.00 B727,2013-01-14 16:36:00,
2013-01-14 09:41:00,32.5,10.3,30.18,East,92,1.0,2.0,39,0.00,,,0.00,165,LWC V2.00 B727,2013-01-14 16:41:00,
2013-01-14 09:46:00,32.3,11.3,30.18,East,92,0.0,1.0,41,0.00,,,0.00,299,LWC V2.00 B727,2013-01-14 16:46:00,
2013-01-14 09:51:00,32.5,10.3,30.18,SW,217,1.0,3.0,39,0.00,,,0.00,271,LWC V2.00 B727,2013-01-14 16:51:00,
2013-01-14 09:56:00,32.9,10.1,30.18,SSW,211,4.0,5.0,38,0.00,,,0.00,353,LWC V2.00 B727,2013-01-14 16:56:00,
2013-01-14 10:01:00,33.7,9.0,30.18,SW,225,4.0,4.0,35,0.00,,,0.00,253,LWC V2.00 B727,2013-01-14 17:01:00,
2013-01-14 10:06:00,34.3,9.5,30.18,SSW,213,4.0,4.0,35,0.00,,,0.00,239,LWC V2.00 B727,2013-01-14 17:06:00,
2013-01-14 10:11:00,33.8,9.7,30.19,SW,214,3.0,3.0,36,0.00,,,0.00,197,LWC V2.00 B727,2013-01-14 17:11:00,
2013-01-14 10:16:00,33.8,9.1,30.19,SSW,213,0.0,4.0,35,0.00,,,0.00,174,LWC V2.00 B727,2013-01-14 17:16:00,
2013-01-14 10:21:00,33.7,8.4,30.19,SW,215,2.0,4.0,34,0.00,,,0.00,163,LWC V2.00 B727,2013-01-14 17:21:00,
2013-01-14 10:26:00,34.3,7.5,30.19,SW,220,3.0,6.0,32,0.00,,,0.00,264,LWC V2.00 B727,2013-01-14 17:26:00,
2013-01-14 10:31:00,34.1,8.7,30.19,SW,215,2.0,6.0,34,0.00,,,0.00,566,LWC V2.00 B727,2013-01-14 17:31:00,
2013-01-14 10:36:00,34.6,8.5,30.18,SSW,212,7.0,7.0,33,0.00,,,0.00,230,LWC V2.00 B727,2013-01-14 17:36:00,
2013-01-14 10:41:00,34.2,8.1,30.19,SW,216,4.0,4.0,33,0.00,,,0.00,193,LWC V2.00 B727,2013-01-14 17:41:00,
2013-01-14 10:46:00,34.3,6.8,30.18,SSW,210,1.0,5.0,31,0.00,,,0.00,283,LWC V2.00 B727,2013-01-14 17:46:00,
2013-01-14 10:51:00,34.8,7.3,30.18,SSW,200,4.0,6.0,31,0.00,,,0.00,374,LWC V2.00 B727,2013-01-14 17:51:00,
2013-01-14 10:56:00,35.2,7.6,30.18,SSW,207,5.0,5.0,31,0.00,,,0.00,415,LWC V2.00 B727,2013-01-14 17:56:00,
2013-01-14 11:01:00,35.1,5.3,30.18,SSW,209,4.0,7.0,28,0.00,,,0.00,288,LWC V2.00 B727,2013-01-14 18:01:00,
2013-01-14 11:06:00,35.3,5.5,30.18,SSW,209,2.0,6.0,28,0.00,,,0.00,348,LWC V2.00 B727,2013-01-14 18:06:00,
2013-01-14 11:11:00,35.5,4.9,30.18,SSW,209,2.0,5.0,27,0.00,,,0.00,299,LWC V2.00 B727,2013-01-14 18:11:00,
2013-01-14 11:16:00,35.6,5.0,30.18,SSW,202,1.0,6.0,27,0.00,,,0.00,527,LWC V2.00 B727,2013-01-14 18:16:00,
2013-01-14 11:21:00,36.2,5.5,30.18,SW,232,2.0,7.0,27,0.00,,,0.00,575,LWC V2.00 B727,2013-01-14 18:21:00,
2013-01-14 11:26:00,36.4,4.8,30.18,SSW,213,5.0,5.0,26,0.00,,,0.00,519,LWC V2.00 B727,2013-01-14 18:26:00,
2013-01-14 11:31:00,36.4,4.8,30.17,SW,217,3.0,5.0,26,0.00,,,0.00,679,LWC V2.00 B727,2013-01-14 18:31:00,
2013-01-14 11:36:00,36.9,5.3,30.17,SSW,207,4.0,6.0,26,0.00,,,0.00,570,LWC V2.00 B727,2013-01-14 18:36:00,
2013-01-14 11:41:00,37.1,5.4,30.17,SSW,200,1.0,6.0,26,0.00,,,0.00,547,LWC V2.00 B727,2013-01-14 18:41:00,
2013-01-14 11:46:00,37.0,5.3,30.16,SW,215,3.0,5.0,26,0.00,,,0.00,633,LWC V2.00 B727,2013-01-14 18:46:00,
2013-01-14 11:51:00,37.2,5.5,30.16,SW,226,3.0,4.0,26,0.00,,,0.00,548,LWC V2.00 B727,2013-01-14 18:51:00,
2013-01-14 11:56:00,37.3,5.6,30.16,SW,215,0.0,6.0,26,0.00,,,0.00,580,LWC V2.00 B727,2013-01-14 18:56:00,
2013-01-14 12:01:00,38.2,6.4,30.16,SW,217,0.0,2.0,26,0.00,,,0.00,640,LWC V2.00 B727,2013-01-14 19:01:00,
2013-01-14 12:06:00,37.8,5.2,30.16,South,170,0.0,4.0,25,0.00,,,0.00,636,LWC V2.00 B727,2013-01-14 19:06:00,
2013-01-14 12:11:00,38.3,6.5,30.16,SW,220,4.0,5.0,26,0.00,,,0.00,631,LWC V2.00 B727,2013-01-14 19:11:00,
2013-01-14 12:16:00,38.1,5.4,30.15,SW,229,3.0,5.0,25,0.00,,,0.00,635,LWC V2.00 B727,2013-01-14 19:16:00,
2013-01-14 12:21:00,38.3,4.7,30.15,SW,234,3.0,4.0,24,0.00,,,0.00,642,LWC V2.00 B727,2013-01-14 19:21:00,
2013-01-14 12:26:00,38.8,3.3,30.15,SSE,168,0.0,3.0,22,0.00,,,0.00,638,LWC V2.00 B727,2013-01-14 19:26:00,
2013-01-14 12:31:00,38.3,5.6,30.14,SSW,211,2.0,7.0,25,0.00,,,0.00,659,LWC V2.00 B727,2013-01-14 19:31:00,
2013-01-14 12:36:00,39.9,6.1,30.14,WSW,246,2.0,5.0,24,0.00,,,0.00,643,LWC V2.00 B727,2013-01-14 19:36:00,
2013-01-14 12:41:00,39.3,4.6,30.14,SW,231,1.0,7.0,23,0.00,,,0.00,415,LWC V2.00 B727,2013-01-14 19:41:00,
2013-01-14 12:46:00,38.4,5.7,30.14,SSW,209,5.0,5.0,25,0.00,,,0.00,434,LWC V2.00 B727,2013-01-14 19:46:00,
2013-01-14 12:51:00,38.6,5.0,30.14,SW,221,6.0,7.0,24,0.00,,,0.00,476,LWC V2.00 B727,2013-01-14 19:51:00,
2013-01-14 12:56:00,38.7,5.1,30.14,WSW,248,0.0,5.0,24,0.00,,,0.00,670,LWC V2.00 B727,2013-01-14 19:56:00,
2013-01-14 13:01:00,39.1,4.5,30.14,WSW,256,3.0,4.0,23,0.00,,,0.00,578,LWC V2.00 B727,2013-01-14 20:01:00,
2013-01-14 13:06:00,39.3,4.6,30.14,SW,223,6.0,8.0,23,0.00,,,0.00,606,LWC V2.00 B727,2013-01-14 20:06:00,
2013-01-14 13:11:00,38.9,5.2,30.13,West,261,5.0,5.0,24,0.00,,,0.00,313,LWC V2.00 B727,2013-01-14 20:11:00,
2013-01-14 13:16:00,38.3,4.7,30.13,WSW,240,3.0,5.0,24,0.00,,,0.00,216,LWC V2.00 B727,2013-01-14 20:16:00,
2013-01-14 13:21:00,38.6,5.0,30.13,SW,234,1.0,3.0,24,0.00,,,0.00,346,LWC V2.00 B727,2013-01-14 20:21:00,
2013-01-14 13:26:00,39.4,4.7,30.13,WNW,292,1.0,2.0,23,0.00,,,0.00,744,LWC V2.00 B727,2013-01-14 20:26:00,
2013-01-14 13:31:00,39.4,4.7,30.13,SSW,203,1.0,10.0,23,0.00,,,0.00,278,LWC V2.00 B727,2013-01-14 20:31:00,
2013-01-14 13:36:00,38.5,4.9,30.13,WSW,237,0.0,4.0,24,0.00,,,0.00,292,LWC V2.00 B727,2013-01-14 20:36:00,
2013-01-14 13:41:00,38.7,6.8,30.13,SW,215,6.0,6.0,26,0.00,,,0.00,294,LWC V2.00 B727,2013-01-14 20:41:00,
2013-01-14 13:46:00,38.9,6.1,30.13,SSW,202,4.0,7.0,25,0.00,,,0.00,471,LWC V2.00 B727,2013-01-14 20:46:00,
2013-01-14 13:51:00,38.9,6.1,30.13,West,269,4.0,6.0,25,0.00,,,0.00,292,LWC V2.00 B727,2013-01-14 20:51:00,
2013-01-14 13:56:00,39.5,6.6,30.13,WNW,287,0.0,5.0,25,0.00,,,0.00,552,LWC V2.00 B727,2013-01-14 20:56:00,
2013-01-14 14:01:00,40.1,6.2,30.13,NW,315,1.0,4.0,24,0.00,,,0.00,555,LWC V2.00 B727,2013-01-14 21:01:00,
2013-01-14 14:06:00,40.0,6.2,30.13,SW,232,5.0,7.0,24,0.00,,,0.00,621,LWC V2.00 B727,2013-01-14 21:06:00,
2013-01-14 14:11:00,40.1,7.1,30.13,WSW,237,4.0,7.0,25,0.00,,,0.00,548,LWC V2.00 B727,2013-01-14 21:11:00,
2013-01-14 14:16:00,40.3,7.3,30.13,WSW,241,0.0,7.0,25,0.00,,,0.00,591,LWC V2.00 B727,2013-01-14 21:16:00,
2013-01-14 14:21:00,41.5,8.3,30.13,WNW,285,6.0,6.0,25,0.00,,,0.00,559,LWC V2.00 B727,2013-01-14 21:21:00,
2013-01-14 14:26:00,41.0,7.9,30.13,WSW,246,4.0,6.0,25,0.00,,,0.00,548,LWC V2.00 B727,2013-01-14 21:26:00,
2013-01-14 14:31:00,41.1,8.0,30.13,WSW,257,3.0,7.0,25,0.00,,,0.00,531,LWC V2.00 B727,2013-01-14 21:31:00,
2013-01-14 14:36:00,40.9,8.7,30.13,SW,227,4.0,7.0,26,0.00,,,0.00,512,LWC V2.00 B727,2013-01-14 21:36:00,
2013-01-14 14:41:00,41.5,9.2,30.13,West,275,2.0,9.0,26,0.00,,,0.00,501,LWC V2.00 B727,2013-01-14 21:41:00,
2013-01-14 14:46:00,40.9,7.8,30.14,SW,231,3.0,10.0,25,0.00,,,0.00,485,LWC V2.00 B727,2013-01-14 21:46:00,
2013-01-14 14:51:00,40.9,8.7,30.14,West,270,2.0,8.0,26,0.00,,,0.00,478,LWC V2.00 B727,2013-01-14 21:51:00,
2013-01-14 14:56:00,40.9,7.8,30.14,WSW,254,8.0,11.0,25,0.00,,,0.00,461,LWC V2.00 B727,2013-01-14 21:56:00,
2013-01-14 15:01:00,39.8,6.9,30.14,SW,235,5.0,7.0,25,0.00,,,0.00,443,LWC V2.00 B727,2013-01-14 22:01:00,
2013-01-14 15:06:00,39.9,7.0,30.15,SW,218,7.0,10.0,25,0.00,,,0.00,432,LWC V2.00 B727,2013-01-14 22:06:00,
2013-01-14 15:11:00,40.1,7.1,30.15,West,271,3.0,8.0,25,0.00,,,0.00,418,LWC V2.00 B727,2013-01-14 22:11:00,
2013-01-14 15:16:00,40.1,7.1,30.15,WSW,257,8.0,9.0,25,0.00,,,0.00,406,LWC V2.00 B727,2013-01-14 22:16:00,
2013-01-14 15:21:00,40.0,7.1,30.15,SW,227,2.0,11.0,25,0.00,,,0.00,390,LWC V2.00 B727,2013-01-14 22:21:00,
2013-01-14 15:26:00,40.1,7.1,30.15,SW,220,3.0,6.0,25,0.00,,,0.00,381,LWC V2.00 B727,2013-01-14 22:26:00,
2013-01-14 15:31:00,39.6,6.7,30.15,West,265,4.0,8.0,25,0.00,,,0.00,367,LWC V2.00 B727,2013-01-14 22:31:00,
2013-01-14 15:36:00,39.5,7.5,30.16,South,188,7.0,9.0,26,0.00,,,0.00,353,LWC V2.00 B727,2013-01-14 22:36:00,
2013-01-14 15:41:00,39.6,6.7,30.16,WSW,251,7.0,7.0,25,0.00,,,0.00,339,LWC V2.00 B727,2013-01-14 22:41:00,
2013-01-14 15:46:00,39.8,6.9,30.16,SW,233,9.0,10.0,25,0.00,,,0.00,323,LWC V2.00 B727,2013-01-14 22:46:00,
2013-01-14 15:51:00,39.9,7.0,30.16,WSW,257,3.0,6.0,25,0.00,,,0.00,309,LWC V2.00 B727,2013-01-14 22:51:00,
2013-01-14 15:56:00,39.9,7.0,30.16,SW,234,3.0,7.0,25,0.00,,,0.00,294,LWC V2.00 B727,2013-01-14 22:56:00,
2013-01-14 16:01:00,39.8,6.9,30.16,NW,325,5.0,8.0,25,0.00,,,0.00,281,LWC V2.00 B727,2013-01-14 23:01:00,
2013-01-14 16:06:00,39.6,5.8,30.16,SW,232,6.0,8.0,24,0.00,,,0.00,265,LWC V2.00 B727,2013-01-14 23:06:00,
2013-01-14 16:11:00,39.6,6.7,30.16,SSW,199,6.0,11.0,25,0.00,,,0.00,248,LWC V2.00 B727,2013-01-14 23:11:00,
2013-01-14 16:16:00,39.2,6.4,30.17,SW,233,4.0,10.0,25,0.00,,,0.00,230,LWC V2.00 B727,2013-01-14 23:16:00,
2013-01-14 16:21:00,39.0,5.3,30.17,SW,225,6.0,6.0,24,0.00,,,0.00,211,LWC V2.00 B727,2013-01-14 23:21:00,
2013-01-14 16:26:00,38.8,6.0,30.17,West,263,4.0,7.0,25,0.00,,,0.00,190,LWC V2.00 B727,2013-01-14 23:26:00,
2013-01-14 16:31:00,38.4,5.7,30.17,SSW,211,6.0,7.0,25,0.00,,,0.00,171,LWC V2.00 B727,2013-01-14 23:31:00,
2013-01-14 16:36:00,38.4,5.7,30.17,SW,234,5.0,9.0,25,0.00,,,0.00,155,LWC V2.00 B727,2013-01-14 23:36:00,
2013-01-14 16:41:00,38.0,5.3,30.17,West,265,3.0,7.0,25,0.00,,,0.00,135,LWC V2.00 B727,2013-01-14 23:41:00,
2013-01-14 16:46:00,37.8,5.2,30.18,West,271,3.0,4.0,25,0.00,,,0.00,116,LWC V2.00 B727,2013-01-14 23:46:00,
2013-01-14 16:51:00,37.9,5.3,30.18,WSW,244,2.0,3.0,25,0.00,,,0.00,98,LWC V2.00 B727,2013-01-14 23:51:00,
2013-01-14 16:56:00,37.8,5.2,30.18,West,263,1.0,5.0,25,0.00,,,0.00,81,LWC V2.00 B727,2013-01-14 23:56:00,
2013-01-14 17:01:00,37.3,5.6,30.18,West,262,2.0,4.0,26,0.00,,,0.00,65,LWC V2.00 B727,2013-01-15 00:01:00,
2013-01-14 17:06:00,37.1,5.4,30.18,NW,315,3.0,6.0,26,0.00,,,0.00,51,LWC V2.00 B727,2013-01-15 00:06:00,
2013-01-14 17:11:00,36.3,4.7,30.18,NW,308,1.0,3.0,26,0.00,,,0.00,40,LWC V2.00 B727,2013-01-15 00:11:00,
2013-01-14 17:16:00,35.8,5.1,30.18,NW,309,4.0,7.0,27,0.00,,,0.00,28,LWC V2.00 B727,2013-01-15 00:16:00,
2013-01-14 17:21:00,35.2,5.4,30.19,WNW,288,1.0,7.0,28,0.00,,,0.00,19,LWC V2.00 B727,2013-01-15 00:21:00,
2013-01-14 17:26:00,34.8,5.8,30.19,NW,306,5.0,8.0,29,0.00,,,0.00,14,LWC V2.00 B727,2013-01-15 00:26:00,
2013-01-14 17:31:00,34.4,5.5,30.19,WNW,300,0.0,6.0,29,0.00,,,0.00,11,LWC V2.00 B727,2013-01-15 00:31:00,
2013-01-14 17:36:00,34.1,5.9,30.20,WNW,301,1.0,5.0,30,0.00,,,0.00,9,LWC V2.00 B727,2013-01-15 00:36:00,
2013-01-14 17:41:00,33.7,5.6,30.20,NW,314,4.0,9.0,30,0.00,,,0.00,5,LWC V2.00 B727,2013-01-15 00:41:00,
2013-01-14 17:46:00,32.9,5.6,30.20,NW,326,0.0,2.0,31,0.00,,,0.00,0,LWC V2.00 B727,2013-01-15 00:46:00,
2013-01-14 17:51:00,32.3,5.8,30.20,NW,320,3.0,4.0,32,0.00,,,0.00,0,LWC V2.00 B727,2013-01-15 00:51:00,
2013-01-14 17:56:00,31.7,5.3,30.21,NNW,332,0.0,6.0,32,0.00,,,0.00,0,LWC V2.00 B727,2013-01-15 00:56:00,
2013-01-14 18:01:00,31.4,5.7,30.21,NNW,337,4.0,4.0,33,0.00,,,0.00,0,LWC V2.00 B727,2013-01-15 01:01:00,
2013-01-14 18:06:00,31.0,5.3,30.22,NNW,346,1.0,2.0,33,0.00,,,0.00,0,LWC V2.00 B727,2013-01-15 01:06:00,
2013-01-14 18:11:00,30.7,5.0,30.22,NNE,28,2.0,4.0,33,0.00,,,0.00,0,LWC V2.00 B727,2013-01-15 01:11:00,
2013-01-14 18:16:00,30.3,4.7,30.23,NNE,28,3.0,5.0,33,0.00,,,0.00,0,LWC V2.00 B727,2013-01-15 01:16:00,
2013-01-14 18:21:00,30.2,4.6,30.23,NNE,28,4.0,4.0,33,0.00,,,0.00,0,LWC V2.00 B727,2013-01-15 01:21:00,
2013-01-14 18:26:00,30.1,4.5,30.23,NNE,24,3.0,3.0,33,0.00,,,0.00,0,LWC V2.00 B727,2013-01-15 01:26:00,
2013-01-14 18:31:00,29.9,4.3,30.23,NNE,20,3.0,4.0,33,0.00,,,0.00,0,LWC V2.00 B727,2013-01-15 01:31:00,
2013-01-14 18:36:00,29.7,4.8,30.23,NNE,20,2.0,5.0,34,0.00,,,0.00,0,LWC V2.00 B727,2013-01-15 01:36:00,
2013-01-14 18:41:00,29.6,4.7,30.23,NNE,20,3.0,3.0,34,0.00,,,0.00,0,LWC V2.00 B727,2013-01-15 01:41:00,
2013-01-14 18:46:00,29.3,5.1,30.24,NNE,15,3.0,4.0,35,0.00,,,0.00,0,LWC V2.00 B727,2013-01-15 01:46:00,
2013-01-14 18:51:00,29.4,4.5,30.24,NNE,13,1.0,8.0,34,0.00,,,0.00,0,LWC V2.00 B727,2013-01-15 01:51:00,
2013-01-14 18:56:00,29.5,4.0,30.24,North,5,5.0,5.0,33,0.00,,,0.00,0,LWC V2.00 B727,2013-01-15 01:56:00,
2013-01-14 19:01:00,29.5,4.6,30.24,NNE,19,2.0,4.0,34,0.00,,,0.00,0,LWC V2.00 B727,2013-01-15 02:01:00,
2013-01-14 19:06:00,29.4,4.5,30.24,North,5,3.0,3.0,34,0.00,,,0.00,0,LWC V2.00 B727,2013-01-15 02:06:00,
2013-01-14 19:11:00,29.3,3.8,30.25,NE,50,1.0,6.0,33,0.00,,,0.00,0,LWC V2.00 B727,2013-01-15 02:11:00,
2013-01-14 19:16:00,29.1,4.3,30.24,NE,49,2.0,4.0,34,0.00,,,0.00,0,LWC V2.00 B727,2013-01-15 02:16:00,
2013-01-14 19:21:00,28.8,4.6,30.24,NE,46,3.0,4.0,35,0.00,,,0.00,0,LWC V2.00 B727,2013-01-15 02:21:00,
2013-01-14 19:26:00,28.6,4.5,30.24,NE,38,4.0,5.0,35,0.00,,,0.00,0,LWC V2.00 B727,2013-01-15 02:26:00,
2013-01-14 19:31:00,28.7,3.3,30.24,NNE,21,5.0,9.0,33,0.00,,,0.00,0,LWC V2.00 B727,2013-01-15 02:31:00,
2013-01-14 19:36:00,28.8,3.4,30.24,NNE,26,2.0,4.0,33,0.00,,,0.00,0,LWC V2.00 B727,2013-01-15 02:36:00,
2013-01-14 19:41:00,28.6,3.2,30.25,NNE,23,4.0,5.0,33,0.00,,,0.00,0,LWC V2.00 B727,2013-01-15 02:41:00,
2013-01-14 19:46:00,28.5,3.1,30.25,NNE,19,1.0,3.0,33,0.00,,,0.00,0,LWC V2.00 B727,2013-01-15 02:46:00,
2013-01-14 19:51:00,28.4,3.0,30.25,NNE,30,5.0,8.0,33,0.00,,,0.00,0,LWC V2.00 B727,2013-01-15 02:51:00,
2013-01-14 19:56:00,28.7,3.3,30.25,North,0,3.0,3.0,33,0.00,,,0.00,0,LWC V2.00 B727,2013-01-15 02:56:00,
2013-01-14 20:01:00,28.4,3.0,30.25,North,0,2.0,3.0,33,0.00,,,0.00,0,LWC V2.00 B727,2013-01-15 03:01:00,
2013-01-14 20:06:00,28.0,3.3,30.25,NNE,24,4.0,5.0,34,0.00,,,0.00,0,LWC V2.00 B727,2013-01-15 03:06:00,
2013-01-14 20:11:00,28.0,3.3,30.26,NNE,25,4.0,5.0,34,0.00,,,0.00,0,LWC V2.00 B727,2013-01-15 03:11:00,
2013-01-14 20:16:00,27.9,3.2,30.26,NE,42,4.0,5.0,34,0.00,,,0.00,0,LWC V2.00 B727,2013-01-15 03:16:00,
2013-01-14 20:21:00,27.9,3.2,30.26,NE,40,4.0,5.0,34,0.00,,,0.00,0,LWC V2.00 B727,2013-01-15 03:21:00,
2013-01-14 20:26:00,27.7,3.7,30.26,NE,40,4.0,4.0,35,0.00,,,0.00,0,LWC V2.00 B727,2013-01-15 03:26:00,
2013-01-14 20:31:00,27.4,4.0,30.26,NE,41,2.0,4.0,36,0.00,,,0.00,0,LWC V2.00 B727,2013-01-15 03:31:00,
2013-01-14 20:36:00,27.2,3.8,30.26,NE,41,1.0,2.0,36,0.00,,,0.00,0,LWC V2.00 B727,2013-01-15 03:36:00,
2013-01-14 20:41:00,27.0,3.6,30.26,NE,41,3.0,4.0,36,0.00,,,0.00,0,LWC V2.00 B727,2013-01-15 03:41:00,
2013-01-14 20:46:00,27.4,4.0,30.26,NE,49,2.0,4.0,36,0.00,,,0.00,0,LWC V2.00 B727,2013-01-15 03:46:00,
2013-01-14 20:51:00,27.4,3.4,30.27,NE,49,3.0,4.0,35,0.00,,,0.00,0,LWC V2.00 B727,2013-01-15 03:51:00,
2013-01-14 20:56:00,27.3,3.3,30.27,NE,47,3.0,4.0,35,0.00,,,0.00,0,LWC V2.00 B727,2013-01-15 03:56:00,
2013-01-14 21:01:00,27.2,3.2,30.27,NE,47,2.0,3.0,35,0.00,,,0.00,0,LWC V2.00 B727,2013-01-15 04:01:00,
2013-01-14 21:06:00,27.1,3.1,30.27,NE,47,2.0,3.0,35,0.00,,,0.00,0,LWC V2.00 B727,2013-01-15 04:06:00,
2013-01-14 21:11:00,27.2,3.2,30.27,NE,47,0.0,3.0,35,0.00,,,0.00,0,LWC V2.00 B727,2013-01-15 04:11:00,
2013-01-14 21:16:00,27.4,2.8,30.27,NE,47,0.0,2.0,34,0.00,,,0.00,0,LWC V2.00 B727,2013-01-15 04:16:00,
2013-01-14 21:21:00,27.4,2.8,30.27,NE,47,2.0,2.0,34,0.00,,,0.00,0,LWC V2.00 B727,2013-01-15 04:21:00,
2013-01-14 21:26:00,27.2,2.6,30.27,NE,48,0.0,1.0,34,0.00,,,0.00,0,LWC V2.00 B727,2013-01-15 04:26:00,
2013-01-14 21:31:00,27.2,2.6,30.27,NE,47,0.0,2.0,34,0.00,,,0.00,0,LWC V2.00 B727,2013-01-15 04:31:00,
2013-01-14 21:36:00,27.1,3.1,30.27,NE,47,0.0,0.0,35,0.00,,,0.00,0,LWC V2.00 B727,2013-01-15 04:36:00,
2013-01-14 21:41:00,26.5,3.2,30.27,NE,47,0.0,0.0,36,0.00,,,0.00,0,LWC V2.00 B727,2013-01-15 04:41:00,
2013-01-14 21:46:00,26.2,4.1,30.27,NE,48,1.0,1.0,38,0.00,,,0.00,0,LWC V2.00 B727,2013-01-15 04:46:00,
2013-01-14 21:51:00,26.0,4.5,30.27,NE,47,0.0,0.0,39,0.00,,,0.00,0,LWC V2.00 B727,2013-01-15 04:51:00,
2013-01-14 21:56:00,25.9,4.4,30.28,NE,47,0.0,0.0,39,0.00,,,0.00,0,LWC V2.00 B727,2013-01-15 04:56:00,
2013-01-14 22:00:00,26.1,4.0,30.28,NE,47,0.0,0.0,38,0.00,,,0.00,0,LWC V2.00 B727,2013-01-15 05:00:00,
2013-01-14 22:05:00,26.4,3.7,30.28,NE,48,1.0,2.0,37,0.00,,,0.00,0,LWC V2.00 B727,2013-01-15 05:05:00,
2013-01-14 22:10:00,26.4,4.3,30.28,NE,47,0.0,0.0,38,0.00,,,0.00,0,LWC V2.00 B727,2013-01-15 05:10:00,
2013-01-14 22:15:00,26.2,4.1,30.28,NE,47,0.0,0.0,38,0.00,,,0.00,0,LWC V2.00 B727,2013-01-15 05:15:00,
2013-01-14 22:20:00,26.1,3.4,30.28,NE,47,0.0,0.0,37,0.00,,,0.00,0,LWC V2.00 B727,2013-01-15 05:20:00,
2013-01-14 22:25:00,26.2,4.1,30.29,NE,48,0.0,0.0,38,0.00,,,0.00,0,LWC V2.00 B727,2013-01-15 05:25:00,
2013-01-14 22:30:00,25.9,4.4,30.29,NE,47,0.0,0.0,39,0.00,,,0.00,0,LWC V2.00 B727,2013-01-15 05:30:00,
2013-01-14 22:35:00,25.5,4.0,30.29,NE,48,0.0,0.0,39,0.00,,,0.00,0,LWC V2.00 B727,2013-01-15 05:35:00,
2013-01-14 22:40:00,25.4,3.9,30.29,NE,47,0.0,0.0,39,0.00,,,0.00,0,LWC V2.00 B727,2013-01-15 05:40:00,
2013-01-14 22:45:00,25.4,4.5,30.29,NE,47,0.0,0.0,40,0.00,,,0.00,0,LWC V2.00 B727,2013-01-15 05:45:00,
2013-01-14 22:50:00,25.1,4.2,30.29,NE,47,0.0,0.0,40,0.00,,,0.00,0,LWC V2.00 B727,2013-01-15 05:50:00,
2013-01-14 22:55:00,24.8,5.0,30.29,NE,47,0.0,2.0,42,0.00,,,0.00,0,LWC V2.00 B727,2013-01-15 05:55:00,
2013-01-14 23:00:00,24.7,4.9,30.29,NE,47,1.0,2.0,42,0.00,,,0.00,0,LWC V2.00 B727,2013-01-15 06:00:00,
2013-01-14 23:05:00,24.7,4.9,30.29,NE,48,0.0,1.0,42,0.00,,,0.00,0,LWC V2.00 B727,2013-01-15 06:05:00,
2013-01-14 23:10:00,24.9,5.1,30.29,NE,47,2.0,2.0,42,0.00,,,0.00,0,LWC V2.00 B727,2013-01-15 06:10:00,
2013-01-14 23:15:00,25.1,4.8,30.29,NE,47,2.0,3.0,41,0.00,,,0.00,0,LWC V2.00 B727,2013-01-15 06:15:00,
2013-01-14 23:20:00,25.0,5.2,30.30,NE,48,2.0,3.0,42,0.00,,,0.00,0,LWC V2.00 B727,2013-01-15 06:20:00,
2013-01-14 23:25:00,25.3,4.9,30.29,NE,48,2.0,3.0,41,0.00,,,0.00,0,LWC V2.00 B727,2013-01-15 06:25:00,
2013-01-14 23:30:00,25.3,5.5,30.30,NE,48,3.0,3.0,42,0.00,,,0.00,0,LWC V2.00 B727,2013-01-15 06:30:00,
2013-01-14 23:35:00,25.2,5.4,30.30,NE,48,2.0,3.0,42,0.00,,,0.00,0,LWC V2.00 B727,2013-01-15 06:35:00,
2013-01-14 23:40:00,25.1,5.3,30.30,NE,47,1.0,3.0,42,0.00,,,0.00,0,LWC V2.00 B727,2013-01-15 06:40:00,
2013-01-14 23:45:00,25.1,5.3,30.30,NE,53,2.0,3.0,42,0.00,,,0.00,0,LWC V2.00 B727,2013-01-15 06:45:00,
2013-01-14 23:50:00,24.8,6.0,30.30,NE,53,2.0,4.0,44,0.00,,,0.00,0,LWC V2.00 B727,2013-01-15 06:50:00,
2013-01-14 23:55:00,24.4,5.7,30.29,NE,53,2.0,2.0,44,0.00,,,0.00,0,LWC V2.00 B727,2013-01-15 06:55:00,